sensor_id;sensor_type;location;lat;lon;timestamp;temperature;humidity
45849;DHT22;31567;54.600;9.842;2022-07-29T00:00:13;13.80;89.00
45849;DHT22;31567;54.600;9.842;2022-07-29T00:03:53;13.80;89.80
45849;DHT22;31567;54.600;9.842;2022-07-29T00:07:32;13.70;89.90
45849;DHT22;31567;54.600;9.842;2022-07-29T00:11:12;13.60;89.90
45849;DHT22;31567;54.600;9.842;2022-07-29T00:14:53;13.50;90.00
45849;DHT22;31567;54.600;9.842;2022-07-29T00:18:34;13.40;90.40
45849;DHT22;31567;54.600;9.842;2022-07-29T00:22:13;13.30;90.50
45849;DHT22;31567;54.600;9.842;2022-07-29T00:25:53;13.20;90.70
45849;DHT22;31567;54.600;9.842;2022-07-29T00:29:32;13.20;90.90
45849;DHT22;31567;54.600;9.842;2022-07-29T00:33:12;13.10;90.80
45849;DHT22;31567;54.600;9.842;2022-07-29T00:36:52;12.90;91.00
45849;DHT22;31567;54.600;9.842;2022-07-29T00:40:31;12.90;91.20
45849;DHT22;31567;54.600;9.842;2022-07-29T00:44:11;12.90;91.20
45849;DHT22;31567;54.600;9.842;2022-07-29T00:47:50;12.70;90.90
45849;DHT22;31567;54.600;9.842;2022-07-29T00:51:30;12.70;90.90
45849;DHT22;31567;54.600;9.842;2022-07-29T00:55:13;12.50;91.00
45849;DHT22;31567;54.600;9.842;2022-07-29T00:58:53;12.50;91.00
45849;DHT22;31567;54.600;9.842;2022-07-29T01:02:35;12.40;90.80
45849;DHT22;31567;54.600;9.842;2022-07-29T01:06:16;12.30;90.90
45849;DHT22;31567;54.600;9.842;2022-07-29T01:09:58;12.20;91.00
45849;DHT22;31567;54.600;9.842;2022-07-29T01:13:38;12.20;91.20
45849;DHT22;31567;54.600;9.842;2022-07-29T01:17:23;12.10;91.20
45849;DHT22;31567;54.600;9.842;2022-07-29T01:29:53;12.20;91.60
45849;DHT22;31567;54.600;9.842;2022-07-29T01:33:38;12.10;91.60
45849;DHT22;31567;54.600;9.842;2022-07-29T01:37:38;12.10;92.00
45849;DHT22;31567;54.600;9.842;2022-07-29T01:41:19;12.20;92.50
45849;DHT22;31567;54.600;9.842;2022-07-29T01:45:06;12.20;92.50
45849;DHT22;31567;54.600;9.842;2022-07-29T01:48:50;12.10;92.30
45849;DHT22;31567;54.600;9.842;2022-07-29T01:52:52;12.10;92.50
45849;DHT22;31567;54.600;9.842;2022-07-29T01:56:35;12.20;92.60
45849;DHT22;31567;54.600;9.842;2022-07-29T02:00:16;12.10;92.50
45849;DHT22;31567;54.600;9.842;2022-07-29T02:03:57;12.10;92.60
45849;DHT22;31567;54.600;9.842;2022-07-29T02:07:40;12.10;92.50
45849;DHT22;31567;54.600;9.842;2022-07-29T02:11:21;12.20;92.60
45849;DHT22;31567;54.600;9.842;2022-07-29T02:15:02;12.10;92.40
45849;DHT22;31567;54.600;9.842;2022-07-29T02:18:43;12.00;92.60
45849;DHT22;31567;54.600;9.842;2022-07-29T02:22:26;12.00;92.70
45849;DHT22;31567;54.600;9.842;2022-07-29T02:26:07;12.10;93.00
45849;DHT22;31567;54.600;9.842;2022-07-29T02:29:49;12.00;93.10
45849;DHT22;31567;54.600;9.842;2022-07-29T02:33:30;12.00;92.80
45849;DHT22;31567;54.600;9.842;2022-07-29T02:37:11;11.90;92.60
45849;DHT22;31567;54.600;9.842;2022-07-29T02:40:52;11.90;92.70
45849;DHT22;31567;54.600;9.842;2022-07-29T02:44:34;11.90;92.70
45849;DHT22;31567;54.600;9.842;2022-07-29T02:48:15;11.90;92.50
45849;DHT22;31567;54.600;9.842;2022-07-29T02:52:00;12.00;92.70
45849;DHT22;31567;54.600;9.842;2022-07-29T02:55:44;12.00;93.00
45849;DHT22;31567;54.600;9.842;2022-07-29T02:59:26;12.00;92.80
45849;DHT22;31567;54.600;9.842;2022-07-29T03:03:11;11.90;92.60
45849;DHT22;31567;54.600;9.842;2022-07-29T03:06:52;11.70;92.80
45849;DHT22;31567;54.600;9.842;2022-07-29T03:10:32;11.60;93.30
45849;DHT22;31567;54.600;9.842;2022-07-29T03:14:13;11.60;93.40
45849;DHT22;31567;54.600;9.842;2022-07-29T03:17:53;11.50;93.50
45849;DHT22;31567;54.600;9.842;2022-07-29T03:21:34;11.50;93.60
45849;DHT22;31567;54.600;9.842;2022-07-29T03:25:17;11.50;93.30
45849;DHT22;31567;54.600;9.842;2022-07-29T03:28:56;11.40;93.30
45849;DHT22;31567;54.600;9.842;2022-07-29T03:32:37;11.30;93.30
45849;DHT22;31567;54.600;9.842;2022-07-29T03:36:16;11.20;93.50
45849;DHT22;31567;54.600;9.842;2022-07-29T03:39:57;11.30;93.70
45849;DHT22;31567;54.600;9.842;2022-07-29T03:43:38;11.30;93.80
45849;DHT22;31567;54.600;9.842;2022-07-29T03:47:21;11.30;94.40
45849;DHT22;31567;54.600;9.842;2022-07-29T03:51:02;11.40;94.70
45849;DHT22;31567;54.600;9.842;2022-07-29T03:54:41;11.50;94.80
45849;DHT22;31567;54.600;9.842;2022-07-29T03:58:22;11.50;94.90
45849;DHT22;31567;54.600;9.842;2022-07-29T04:02:03;11.50;94.80
45849;DHT22;31567;54.600;9.842;2022-07-29T04:05:43;11.60;94.80
45849;DHT22;31567;54.600;9.842;2022-07-29T04:09:23;11.60;94.90
45849;DHT22;31567;54.600;9.842;2022-07-29T04:13:02;11.60;95.00
45849;DHT22;31567;54.600;9.842;2022-07-29T04:16:42;11.70;95.40
45849;DHT22;31567;54.600;9.842;2022-07-29T04:20:21;11.80;95.70
45849;DHT22;31567;54.600;9.842;2022-07-29T04:24:01;12.00;95.80
45849;DHT22;31567;54.600;9.842;2022-07-29T04:27:41;12.00;95.80
45849;DHT22;31567;54.600;9.842;2022-07-29T04:31:39;12.10;95.90
45849;DHT22;31567;54.600;9.842;2022-07-29T04:35:19;12.20;96.20
45849;DHT22;31567;54.600;9.842;2022-07-29T04:38:59;12.40;96.40
45849;DHT22;31567;54.600;9.842;2022-07-29T04:42:40;12.50;96.60
45849;DHT22;31567;54.600;9.842;2022-07-29T04:46:19;12.70;96.80
45849;DHT22;31567;54.600;9.842;2022-07-29T04:49:59;12.80;97.00
45849;DHT22;31567;54.600;9.842;2022-07-29T04:53:39;13.00;97.30
45849;DHT22;31567;54.600;9.842;2022-07-29T04:57:18;13.20;97.50
45849;DHT22;31567;54.600;9.842;2022-07-29T05:00:58;13.40;97.60
45849;DHT22;31567;54.600;9.842;2022-07-29T05:04:37;13.50;97.70
45849;DHT22;31567;54.600;9.842;2022-07-29T05:08:17;13.70;97.90
45849;DHT22;31567;54.600;9.842;2022-07-29T05:11:56;13.80;98.00
45849;DHT22;31567;54.600;9.842;2022-07-29T05:15:37;14.10;98.20
45849;DHT22;31567;54.600;9.842;2022-07-29T05:19:17;14.30;98.40
45849;DHT22;31567;54.600;9.842;2022-07-29T05:23:01;14.50;98.60
45849;DHT22;31567;54.600;9.842;2022-07-29T05:26:41;14.70;98.80
45849;DHT22;31567;54.600;9.842;2022-07-29T05:30:21;14.80;98.80
45849;DHT22;31567;54.600;9.842;2022-07-29T05:34:00;15.10;99.00
45849;DHT22;31567;54.600;9.842;2022-07-29T05:37:40;15.20;99.10
45849;DHT22;31567;54.600;9.842;2022-07-29T05:41:20;15.40;99.20
45849;DHT22;31567;54.600;9.842;2022-07-29T05:45:01;15.60;99.20
45849;DHT22;31567;54.600;9.842;2022-07-29T05:48:40;15.80;99.20
45849;DHT22;31567;54.600;9.842;2022-07-29T05:52:20;15.90;99.20
45849;DHT22;31567;54.600;9.842;2022-07-29T05:56:03;16.20;98.90
45849;DHT22;31567;54.600;9.842;2022-07-29T05:59:44;16.30;98.80
45849;DHT22;31567;54.600;9.842;2022-07-29T06:03:23;16.40;98.50
45849;DHT22;31567;54.600;9.842;2022-07-29T06:07:03;16.60;98.30
45849;DHT22;31567;54.600;9.842;2022-07-29T06:10:43;16.70;98.00
45849;DHT22;31567;54.600;9.842;2022-07-29T06:14:22;16.80;97.70
45849;DHT22;31567;54.600;9.842;2022-07-29T06:18:02;17.00;97.50
45849;DHT22;31567;54.600;9.842;2022-07-29T06:21:45;17.20;97.30
45849;DHT22;31567;54.600;9.842;2022-07-29T06:25:26;17.30;97.30
45849;DHT22;31567;54.600;9.842;2022-07-29T06:29:08;17.60;97.30
45849;DHT22;31567;54.600;9.842;2022-07-29T06:32:49;17.80;97.20
45849;DHT22;31567;54.600;9.842;2022-07-29T06:36:29;18.00;97.10
45849;DHT22;31567;54.600;9.842;2022-07-29T06:40:10;18.20;96.90
45849;DHT22;31567;54.600;9.842;2022-07-29T06:44:08;18.40;96.80
45849;DHT22;31567;54.600;9.842;2022-07-29T06:47:48;18.60;96.40
45849;DHT22;31567;54.600;9.842;2022-07-29T06:51:29;18.70;96.20
45849;DHT22;31567;54.600;9.842;2022-07-29T06:55:08;18.90;95.90
45849;DHT22;31567;54.600;9.842;2022-07-29T06:58:48;19.00;95.60
45849;DHT22;31567;54.600;9.842;2022-07-29T07:02:28;19.10;95.40
45849;DHT22;31567;54.600;9.842;2022-07-29T07:06:08;19.30;94.80
45849;DHT22;31567;54.600;9.842;2022-07-29T07:09:47;19.40;94.40
45849;DHT22;31567;54.600;9.842;2022-07-29T07:13:27;19.50;94.30
45849;DHT22;31567;54.600;9.842;2022-07-29T07:17:10;19.50;93.70
45849;DHT22;31567;54.600;9.842;2022-07-29T07:20:50;19.60;93.00
45849;DHT22;31567;54.600;9.842;2022-07-29T07:24:29;19.60;92.20
45849;DHT22;31567;54.600;9.842;2022-07-29T07:28:09;19.60;91.80
45849;DHT22;31567;54.600;9.842;2022-07-29T07:31:48;19.60;92.00
45849;DHT22;31567;54.600;9.842;2022-07-29T07:35:28;19.70;92.00
45849;DHT22;31567;54.600;9.842;2022-07-29T07:39:08;19.80;91.80
45849;DHT22;31567;54.600;9.842;2022-07-29T07:42:47;20.00;91.20
45849;DHT22;31567;54.600;9.842;2022-07-29T07:46:27;20.20;91.00
45849;DHT22;31567;54.600;9.842;2022-07-29T07:50:09;20.30;90.10
45849;DHT22;31567;54.600;9.842;2022-07-29T07:53:49;20.40;88.50
45849;DHT22;31567;54.600;9.842;2022-07-29T07:57:29;20.50;89.20
45849;DHT22;31567;54.600;9.842;2022-07-29T08:01:09;20.70;88.20
45849;DHT22;31567;54.600;9.842;2022-07-29T08:04:49;20.80;87.70
45849;DHT22;31567;54.600;9.842;2022-07-29T08:08:28;21.00;88.70
45849;DHT22;31567;54.600;9.842;2022-07-29T08:12:08;21.20;87.70
45849;DHT22;31567;54.600;9.842;2022-07-29T08:15:48;21.30;87.60
45849;DHT22;31567;54.600;9.842;2022-07-29T08:19:36;21.40;87.00
45849;DHT22;31567;54.600;9.842;2022-07-29T08:23:16;21.60;85.50
45849;DHT22;31567;54.600;9.842;2022-07-29T08:26:58;21.70;84.80
45849;DHT22;31567;54.600;9.842;2022-07-29T08:30:37;21.90;85.20
45849;DHT22;31567;54.600;9.842;2022-07-29T08:34:17;22.10;84.60
45849;DHT22;31567;54.600;9.842;2022-07-29T08:37:57;22.20;83.40
45849;DHT22;31567;54.600;9.842;2022-07-29T08:41:36;22.40;83.20
45849;DHT22;31567;54.600;9.842;2022-07-29T08:45:16;22.60;83.70
45849;DHT22;31567;54.600;9.842;2022-07-29T08:48:55;22.70;82.20
45849;DHT22;31567;54.600;9.842;2022-07-29T08:52:37;22.80;81.50
45849;DHT22;31567;54.600;9.842;2022-07-29T08:56:18;23.00;81.20
45849;DHT22;31567;54.600;9.842;2022-07-29T09:00:00;23.10;80.70
45849;DHT22;31567;54.600;9.842;2022-07-29T09:03:40;23.10;80.90
45849;DHT22;31567;54.600;9.842;2022-07-29T09:07:19;23.20;79.50
45849;DHT22;31567;54.600;9.842;2022-07-29T09:11:01;23.40;79.50
45849;DHT22;31567;54.600;9.842;2022-07-29T09:14:41;23.50;78.50
45849;DHT22;31567;54.600;9.842;2022-07-29T09:18:37;23.60;77.80
45849;DHT22;31567;54.600;9.842;2022-07-29T09:22:29;23.80;77.00
45849;DHT22;31567;54.600;9.842;2022-07-29T09:26:09;23.90;75.70
45849;DHT22;31567;54.600;9.842;2022-07-29T09:29:57;24.10;77.50
45849;DHT22;31567;54.600;9.842;2022-07-29T09:33:37;24.20;76.10
45849;DHT22;31567;54.600;9.842;2022-07-29T09:37:28;24.40;76.90
45849;DHT22;31567;54.600;9.842;2022-07-29T09:41:07;24.50;75.00
45849;DHT22;31567;54.600;9.842;2022-07-29T09:44:50;24.50;75.10
45849;DHT22;31567;54.600;9.842;2022-07-29T09:48:29;24.60;74.40
45849;DHT22;31567;54.600;9.842;2022-07-29T09:52:09;24.60;74.80
45849;DHT22;31567;54.600;9.842;2022-07-29T09:55:51;24.60;76.00
45849;DHT22;31567;54.600;9.842;2022-07-29T09:59:31;24.80;74.80
45849;DHT22;31567;54.600;9.842;2022-07-29T10:03:11;24.80;73.30
45849;DHT22;31567;54.600;9.842;2022-07-29T10:06:59;25.00;73.40
45849;DHT22;31567;54.600;9.842;2022-07-29T10:10:41;25.00;72.80
45849;DHT22;31567;54.600;9.842;2022-07-29T10:14:21;24.80;73.60
45849;DHT22;31567;54.600;9.842;2022-07-29T10:18:00;24.70;74.70
45849;DHT22;31567;54.600;9.842;2022-07-29T10:21:40;24.40;75.00
45849;DHT22;31567;54.600;9.842;2022-07-29T10:25:23;24.20;75.80
45849;DHT22;31567;54.600;9.842;2022-07-29T10:29:03;24.10;77.40
45849;DHT22;31567;54.600;9.842;2022-07-29T10:37:07;24.40;77.30
45849;DHT22;31567;54.600;9.842;2022-07-29T10:45:06;24.70;76.60
45849;DHT22;31567;54.600;9.842;2022-07-29T10:52:53;24.80;76.30
45849;DHT22;31567;54.600;9.842;2022-07-29T10:56:33;24.90;76.40
45849;DHT22;31567;54.600;9.842;2022-07-29T11:03:53;25.10;75.90
45849;DHT22;31567;54.600;9.842;2022-07-29T11:07:36;25.40;76.20
45849;DHT22;31567;54.600;9.842;2022-07-29T11:14:59;25.60;73.80
45849;DHT22;31567;54.600;9.842;2022-07-29T11:19:19;25.50;74.90
45849;DHT22;31567;54.600;9.842;2022-07-29T11:22:59;25.50;75.20
45849;DHT22;31567;54.600;9.842;2022-07-29T11:26:38;25.40;75.10
45849;DHT22;31567;54.600;9.842;2022-07-29T11:30:18;25.40;74.60
45849;DHT22;31567;54.600;9.842;2022-07-29T11:34:33;25.50;74.30
45849;DHT22;31567;54.600;9.842;2022-07-29T11:38:28;25.70;74.90
45849;DHT22;31567;54.600;9.842;2022-07-29T11:45:56;26.10;74.00
45849;DHT22;31567;54.600;9.842;2022-07-29T11:49:36;26.40;73.00
45849;DHT22;31567;54.600;9.842;2022-07-29T11:53:23;26.50;72.20
45849;DHT22;31567;54.600;9.842;2022-07-29T11:57:03;26.70;71.80
45849;DHT22;31567;54.600;9.842;2022-07-29T12:00:46;27.10;70.50
45849;DHT22;31567;54.600;9.842;2022-07-29T12:04:27;27.20;69.10
45849;DHT22;31567;54.600;9.842;2022-07-29T12:08:07;27.20;69.80
45849;DHT22;31567;54.600;9.842;2022-07-29T12:11:48;27.10;68.70
45849;DHT22;31567;54.600;9.842;2022-07-29T12:15:27;27.10;67.80
45849;DHT22;31567;54.600;9.842;2022-07-29T12:19:07;27.20;69.20
45849;DHT22;31567;54.600;9.842;2022-07-29T12:22:47;27.30;68.50
45849;DHT22;31567;54.600;9.842;2022-07-29T12:26:28;27.30;69.10
45849;DHT22;31567;54.600;9.842;2022-07-29T12:30:09;27.30;68.20
45849;DHT22;31567;54.600;9.842;2022-07-29T12:33:52;27.20;67.00
45849;DHT22;31567;54.600;9.842;2022-07-29T12:37:34;27.10;66.50
45849;DHT22;31567;54.600;9.842;2022-07-29T12:41:14;27.10;67.10
45849;DHT22;31567;54.600;9.842;2022-07-29T12:44:54;27.20;67.30
45849;DHT22;31567;54.600;9.842;2022-07-29T12:52:30;27.00;66.50
45849;DHT22;31567;54.600;9.842;2022-07-29T12:56:16;27.10;66.20
45849;DHT22;31567;54.600;9.842;2022-07-29T13:00:14;27.20;64.80
45849;DHT22;31567;54.600;9.842;2022-07-29T13:03:56;27.20;63.80
45849;DHT22;31567;54.600;9.842;2022-07-29T13:07:37;27.20;62.80
45849;DHT22;31567;54.600;9.842;2022-07-29T13:11:35;27.30;63.50
45849;DHT22;31567;54.600;9.842;2022-07-29T13:15:15;27.50;63.40
45849;DHT22;31567;54.600;9.842;2022-07-29T13:22:47;27.50;63.80
45849;DHT22;31567;54.600;9.842;2022-07-29T13:26:27;27.50;64.00
45849;DHT22;31567;54.600;9.842;2022-07-29T13:30:08;27.50;62.00
45849;DHT22;31567;54.600;9.842;2022-07-29T13:33:49;27.50;62.40
45849;DHT22;31567;54.600;9.842;2022-07-29T13:37:28;27.70;60.80
45849;DHT22;31567;54.600;9.842;2022-07-29T13:41:08;27.90;59.60
45849;DHT22;31567;54.600;9.842;2022-07-29T13:44:48;27.90;60.00
45849;DHT22;31567;54.600;9.842;2022-07-29T13:48:30;27.90;59.40
45849;DHT22;31567;54.600;9.842;2022-07-29T13:52:09;27.90;57.40
45849;DHT22;31567;54.600;9.842;2022-07-29T13:55:49;27.90;57.50
45849;DHT22;31567;54.600;9.842;2022-07-29T13:59:30;27.90;56.80
45849;DHT22;31567;54.600;9.842;2022-07-29T14:03:10;28.00;56.00
45849;DHT22;31567;54.600;9.842;2022-07-29T14:06:50;28.00;55.90
45849;DHT22;31567;54.600;9.842;2022-07-29T14:10:29;28.00;54.20
45849;DHT22;31567;54.600;9.842;2022-07-29T14:14:09;28.10;54.00
45849;DHT22;31567;54.600;9.842;2022-07-29T14:17:49;28.10;53.30
45849;DHT22;31567;54.600;9.842;2022-07-29T14:21:29;28.10;55.00
45849;DHT22;31567;54.600;9.842;2022-07-29T14:25:10;28.20;55.20
45849;DHT22;31567;54.600;9.842;2022-07-29T14:28:50;28.10;53.50
45849;DHT22;31567;54.600;9.842;2022-07-29T14:32:29;27.90;53.20
45849;DHT22;31567;54.600;9.842;2022-07-29T14:36:09;27.70;54.60
45849;DHT22;31567;54.600;9.842;2022-07-29T14:39:48;27.40;54.90
45849;DHT22;31567;54.600;9.842;2022-07-29T14:43:28;27.10;54.50
45849;DHT22;31567;54.600;9.842;2022-07-29T14:47:08;26.90;54.60
45849;DHT22;31567;54.600;9.842;2022-07-29T14:50:47;26.80;56.20
45849;DHT22;31567;54.600;9.842;2022-07-29T14:54:27;26.70;56.80
45849;DHT22;31567;54.600;9.842;2022-07-29T14:58:07;26.60;57.80
45849;DHT22;31567;54.600;9.842;2022-07-29T15:01:46;26.60;57.50
45849;DHT22;31567;54.600;9.842;2022-07-29T15:05:26;26.70;59.60
45849;DHT22;31567;54.600;9.842;2022-07-29T15:09:06;26.90;59.60
45849;DHT22;31567;54.600;9.842;2022-07-29T15:12:46;27.10;59.40
45849;DHT22;31567;54.600;9.842;2022-07-29T15:16:25;27.30;58.30
45849;DHT22;31567;54.600;9.842;2022-07-29T15:20:05;27.60;58.80
45849;DHT22;31567;54.600;9.842;2022-07-29T15:23:45;27.90;58.40
45849;DHT22;31567;54.600;9.842;2022-07-29T15:27:24;28.10;57.90
45849;DHT22;31567;54.600;9.842;2022-07-29T15:31:04;28.30;57.70
45849;DHT22;31567;54.600;9.842;2022-07-29T15:34:44;28.60;57.00
45849;DHT22;31567;54.600;9.842;2022-07-29T15:38:23;28.70;57.10
45849;DHT22;31567;54.600;9.842;2022-07-29T15:42:03;28.90;57.40
45849;DHT22;31567;54.600;9.842;2022-07-29T15:45:43;28.90;56.90
45849;DHT22;31567;54.600;9.842;2022-07-29T15:49:42;29.00;55.20
45849;DHT22;31567;54.600;9.842;2022-07-29T15:53:22;29.20;56.20
45849;DHT22;31567;54.600;9.842;2022-07-29T15:57:03;29.30;56.00
45849;DHT22;31567;54.600;9.842;2022-07-29T16:00:43;29.30;55.30
45849;DHT22;31567;54.600;9.842;2022-07-29T16:04:22;29.40;55.00
45849;DHT22;31567;54.600;9.842;2022-07-29T16:08:02;29.50;54.50
45849;DHT22;31567;54.600;9.842;2022-07-29T16:11:42;29.60;54.20
45849;DHT22;31567;54.600;9.842;2022-07-29T16:15:22;29.60;55.40
45849;DHT22;31567;54.600;9.842;2022-07-29T16:19:02;29.60;55.20
45849;DHT22;31567;54.600;9.842;2022-07-29T16:22:42;29.70;54.80
45849;DHT22;31567;54.600;9.842;2022-07-29T16:26:21;29.80;54.80
45849;DHT22;31567;54.600;9.842;2022-07-29T16:30:01;30.00;54.70
45849;DHT22;31567;54.600;9.842;2022-07-29T16:33:40;30.20;54.90
45849;DHT22;31567;54.600;9.842;2022-07-29T16:37:20;30.30;54.50
45849;DHT22;31567;54.600;9.842;2022-07-29T16:40:59;30.40;54.40
45849;DHT22;31567;54.600;9.842;2022-07-29T16:44:39;30.40;54.20
45849;DHT22;31567;54.600;9.842;2022-07-29T16:48:19;30.70;53.50
45849;DHT22;31567;54.600;9.842;2022-07-29T16:51:58;30.90;52.60
45849;DHT22;31567;54.600;9.842;2022-07-29T16:55:38;31.00;51.90
45849;DHT22;31567;54.600;9.842;2022-07-29T16:59:17;31.20;52.40
45849;DHT22;31567;54.600;9.842;2022-07-29T17:02:57;31.10;51.80
45849;DHT22;31567;54.600;9.842;2022-07-29T17:06:39;30.80;52.40
45849;DHT22;31567;54.600;9.842;2022-07-29T17:10:19;30.50;53.00
45849;DHT22;31567;54.600;9.842;2022-07-29T17:14:00;30.50;53.60
45849;DHT22;31567;54.600;9.842;2022-07-29T17:17:40;30.70;53.60
45849;DHT22;31567;54.600;9.842;2022-07-29T17:21:20;30.70;53.30
45849;DHT22;31567;54.600;9.842;2022-07-29T17:25:00;30.50;53.30
45849;DHT22;31567;54.600;9.842;2022-07-29T17:28:40;30.10;54.00
45849;DHT22;31567;54.600;9.842;2022-07-29T17:32:21;29.70;53.10
45849;DHT22;31567;54.600;9.842;2022-07-29T17:36:01;29.40;54.00
45849;DHT22;31567;54.600;9.842;2022-07-29T17:39:59;29.20;54.30
45849;DHT22;31567;54.600;9.842;2022-07-29T17:43:38;28.80;54.70
45849;DHT22;31567;54.600;9.842;2022-07-29T17:47:18;28.50;55.60
45849;DHT22;31567;54.600;9.842;2022-07-29T17:50:58;28.30;56.60
45849;DHT22;31567;54.600;9.842;2022-07-29T17:54:37;28.00;57.20
45849;DHT22;31567;54.600;9.842;2022-07-29T17:58:17;27.80;56.50
45849;DHT22;31567;54.600;9.842;2022-07-29T18:01:56;27.60;56.90
45849;DHT22;31567;54.600;9.842;2022-07-29T18:05:36;27.40;57.10
45849;DHT22;31567;54.600;9.842;2022-07-29T18:09:16;27.20;56.80
45849;DHT22;31567;54.600;9.842;2022-07-29T18:12:55;27.00;57.20
45849;DHT22;31567;54.600;9.842;2022-07-29T18:16:35;26.80;57.90
45849;DHT22;31567;54.600;9.842;2022-07-29T18:20:16;26.60;58.80
45849;DHT22;31567;54.600;9.842;2022-07-29T18:23:56;26.50;59.70
45849;DHT22;31567;54.600;9.842;2022-07-29T18:27:35;26.30;60.10
45849;DHT22;31567;54.600;9.842;2022-07-29T18:31:15;26.20;60.10
45849;DHT22;31567;54.600;9.842;2022-07-29T18:34:54;26.00;60.30
45849;DHT22;31567;54.600;9.842;2022-07-29T18:38:34;25.80;61.00
45849;DHT22;31567;54.600;9.842;2022-07-29T18:42:14;25.70;61.80
45849;DHT22;31567;54.600;9.842;2022-07-29T18:45:53;25.70;62.20
45849;DHT22;31567;54.600;9.842;2022-07-29T18:49:33;25.90;62.30
45849;DHT22;31567;54.600;9.842;2022-07-29T18:53:12;26.00;62.10
45849;DHT22;31567;54.600;9.842;2022-07-29T18:56:52;25.90;62.80
45849;DHT22;31567;54.600;9.842;2022-07-29T19:00:31;25.80;63.50
45849;DHT22;31567;54.600;9.842;2022-07-29T19:04:11;25.50;63.90
45849;DHT22;31567;54.600;9.842;2022-07-29T19:07:51;25.20;64.90
45849;DHT22;31567;54.600;9.842;2022-07-29T19:11:36;25.00;65.70
45849;DHT22;31567;54.600;9.842;2022-07-29T19:15:16;24.80;66.90
45849;DHT22;31567;54.600;9.842;2022-07-29T19:18:56;24.60;68.20
45849;DHT22;31567;54.600;9.842;2022-07-29T19:22:35;24.40;69.10
45849;DHT22;31567;54.600;9.842;2022-07-29T19:26:15;24.20;69.50
45849;DHT22;31567;54.600;9.842;2022-07-29T19:29:55;24.00;70.20
45849;DHT22;31567;54.600;9.842;2022-07-29T19:33:35;23.90;71.20
45849;DHT22;31567;54.600;9.842;2022-07-29T19:37:14;23.70;71.80
45849;DHT22;31567;54.600;9.842;2022-07-29T19:40:54;23.50;73.00
45849;DHT22;31567;54.600;9.842;2022-07-29T19:44:34;23.30;73.90
45849;DHT22;31567;54.600;9.842;2022-07-29T19:48:14;23.30;74.70
45849;DHT22;31567;54.600;9.842;2022-07-29T19:51:53;23.10;75.20
45849;DHT22;31567;54.600;9.842;2022-07-29T19:55:34;23.00;75.70
45849;DHT22;31567;54.600;9.842;2022-07-29T19:59:13;22.90;76.10
45849;DHT22;31567;54.600;9.842;2022-07-29T20:02:53;22.80;76.70
45849;DHT22;31567;54.600;9.842;2022-07-29T20:06:33;22.60;77.30
45849;DHT22;31567;54.600;9.842;2022-07-29T20:10:12;22.40;78.20
45849;DHT22;31567;54.600;9.842;2022-07-29T20:13:52;22.30;78.80
45849;DHT22;31567;54.600;9.842;2022-07-29T20:17:32;22.20;79.40
45849;DHT22;31567;54.600;9.842;2022-07-29T20:21:12;22.10;80.10
45849;DHT22;31567;54.600;9.842;2022-07-29T20:24:51;22.00;80.70
45849;DHT22;31567;54.600;9.842;2022-07-29T20:28:31;21.90;81.20
45849;DHT22;31567;54.600;9.842;2022-07-29T20:32:10;21.80;81.80
45849;DHT22;31567;54.600;9.842;2022-07-29T20:35:50;21.80;82.30
45849;DHT22;31567;54.600;9.842;2022-07-29T20:39:30;21.70;82.50
45849;DHT22;31567;54.600;9.842;2022-07-29T20:43:09;21.70;82.90
45849;DHT22;31567;54.600;9.842;2022-07-29T20:46:49;21.60;83.10
45849;DHT22;31567;54.600;9.842;2022-07-29T20:50:29;21.50;83.40
45849;DHT22;31567;54.600;9.842;2022-07-29T20:54:08;21.50;83.80
45849;DHT22;31567;54.600;9.842;2022-07-29T20:57:48;21.40;84.40
45849;DHT22;31567;54.600;9.842;2022-07-29T21:01:27;21.40;85.30
45849;DHT22;31567;54.600;9.842;2022-07-29T21:05:07;21.30;85.80
45849;DHT22;31567;54.600;9.842;2022-07-29T21:08:47;21.30;86.40
45849;DHT22;31567;54.600;9.842;2022-07-29T21:12:26;21.30;86.70
45849;DHT22;31567;54.600;9.842;2022-07-29T21:16:08;21.30;87.30
45849;DHT22;31567;54.600;9.842;2022-07-29T21:19:51;21.20;87.80
45849;DHT22;31567;54.600;9.842;2022-07-29T21:23:31;21.20;88.30
45849;DHT22;31567;54.600;9.842;2022-07-29T21:27:11;21.20;88.70
45849;DHT22;31567;54.600;9.842;2022-07-29T21:31:13;21.30;89.10
45849;DHT22;31567;54.600;9.842;2022-07-29T21:34:53;21.20;88.90
45849;DHT22;31567;54.600;9.842;2022-07-29T21:38:33;21.30;89.80
45849;DHT22;31567;54.600;9.842;2022-07-29T21:42:12;21.20;90.30
45849;DHT22;31567;54.600;9.842;2022-07-29T21:45:52;21.20;90.10
45849;DHT22;31567;54.600;9.842;2022-07-29T21:49:32;21.20;90.20
45849;DHT22;31567;54.600;9.842;2022-07-29T21:53:12;21.10;90.20
45849;DHT22;31567;54.600;9.842;2022-07-29T21:56:52;21.10;90.30
45849;DHT22;31567;54.600;9.842;2022-07-29T22:00:32;21.10;90.30
45849;DHT22;31567;54.600;9.842;2022-07-29T22:04:14;21.10;90.40
45849;DHT22;31567;54.600;9.842;2022-07-29T22:07:54;21.00;90.40
45849;DHT22;31567;54.600;9.842;2022-07-29T22:11:34;21.10;90.50
45849;DHT22;31567;54.600;9.842;2022-07-29T22:15:15;21.10;90.50
45849;DHT22;31567;54.600;9.842;2022-07-29T22:18:54;21.00;90.50
45849;DHT22;31567;54.600;9.842;2022-07-29T22:22:34;21.00;90.60
45849;DHT22;31567;54.600;9.842;2022-07-29T22:26:13;21.00;90.70
45849;DHT22;31567;54.600;9.842;2022-07-29T22:29:53;20.90;90.80
45849;DHT22;31567;54.600;9.842;2022-07-29T22:33:32;20.90;90.90
45849;DHT22;31567;54.600;9.842;2022-07-29T22:37:12;20.90;90.90
45849;DHT22;31567;54.600;9.842;2022-07-29T22:40:51;20.90;91.00
45849;DHT22;31567;54.600;9.842;2022-07-29T22:44:31;20.80;91.00
45849;DHT22;31567;54.600;9.842;2022-07-29T22:48:11;20.80;91.10
45849;DHT22;31567;54.600;9.842;2022-07-29T22:51:50;20.80;91.10
45849;DHT22;31567;54.600;9.842;2022-07-29T22:55:30;20.70;91.20
45849;DHT22;31567;54.600;9.842;2022-07-29T22:59:09;20.70;91.30
45849;DHT22;31567;54.600;9.842;2022-07-29T23:02:49;20.70;91.30
45849;DHT22;31567;54.600;9.842;2022-07-29T23:06:28;20.70;91.40
45849;DHT22;31567;54.600;9.842;2022-07-29T23:10:08;20.60;91.70
45849;DHT22;31567;54.600;9.842;2022-07-29T23:13:48;20.60;91.70
45849;DHT22;31567;54.600;9.842;2022-07-29T23:17:27;20.50;91.60
45849;DHT22;31567;54.600;9.842;2022-07-29T23:21:07;20.50;91.80
45849;DHT22;31567;54.600;9.842;2022-07-29T23:24:47;20.50;91.90
45849;DHT22;31567;54.600;9.842;2022-07-29T23:28:26;20.50;92.00
45849;DHT22;31567;54.600;9.842;2022-07-29T23:32:06;20.40;92.10
45849;DHT22;31567;54.600;9.842;2022-07-29T23:35:46;20.40;92.30
45849;DHT22;31567;54.600;9.842;2022-07-29T23:39:25;20.30;92.40
45849;DHT22;31567;54.600;9.842;2022-07-29T23:43:05;20.30;92.50
45849;DHT22;31567;54.600;9.842;2022-07-29T23:46:44;20.30;92.70
45849;DHT22;31567;54.600;9.842;2022-07-29T23:50:24;20.30;92.90
45849;DHT22;31567;54.600;9.842;2022-07-29T23:54:03;20.20;93.00